Terminal Aerodrome Forecast
Issued by NWS Sterling, VA

Current Version | Previous Version | Graphics & Text | Print | Product List | Glossary On
Versions: 1 2 3 4 5 6 7 8 9 10 11 12 13 14 15 16 17 18 19 20 21 22
598
FTUS41 KLWX 202039 AAB
TAFIAD
TAF AMD
KIAD 202039Z 2021/2124 34008KT P6SM FEW060 BKN250
     FM210100 08004KT P6SM FEW060
     FM210800 00000KT P6SM FEW200
     FM211200 26004KT P6SM FEW050=

USA.gov is the U.S. government's official web portal to all federal, state and local government web resources and services.